Middle Georgia Regional Airport
KMCN : now visible

Airfield :











YOU CAN JOIN US ON...

 
LOGIN :

Register | Disclaimer

   EN    FR    IT 

 









Legend :    VFR   Marginal VFR   IFR   Intensive IFR   Very Intensive IFR
Visi :
Ceiling :
>= 8 km
>= 3000ft
5 to 8 km
1000 to 3000 ft
1500m to 5 km
500 to 1000 ft
800 to 1500m
200 to 500 ft
< 800m
< 200 ft
Symbols :   Thunderstorms  Fog  Heavy snow  Heavy precipitations  Wind > 20 kt






- Airport Elevation : 354 ft
- IATA code : MCN


KMCN - Middle Georgia Regional

CURRENT METAR :
  • 290053Z AUTO 14005KT 10SM BKN044 BKN050 25/21 A2993 RMK AO2 SLP132 T02500211

EXPIRED METARs :
  • 282353Z AUTO 12004KT 10SM FEW047 OVC090 25/21 A2993 RMK AO2 SLP132 T02500211 10300 20250 56012
  • 282253Z 14003KT 10SM BKN085 26/21 A2994 RMK AO2 SLP133 T02610211

TAF KMCN
Valid from the 29 at 00:00 until the 30 at 00:00 UTC


282325Z 2900/2924 12007KT P6SM VCSH BKN080
FM290400 15011KT P6SM OVC040
FM290500 16012KT P6SM OVC025
FM290700 17016G24KT P6SM OVC010
FM291000 19019G29KT P6SM SHRA OVC018
FM291300 22014G22KT P6SM VCSH OVC015
FM291600 24012KT P6SM BKN020
FM292000 23011KT P6SM SCT035
KZTL FIR / North America



MET'MAP, your aeronautical weather chart ! - Copyright ORBIFLY December 2007 - Disclaimer

ORBIFLY MET'MAP TEAM :

Programming & Development : Alexandra Zaïnal
Concept & original design : Baudouin d'Aumeries
Assistance for programming : Marc-Olivier Méhu
Technical & hardware support : Manuel Goepfert

Contact : metmap@orbifly.com




SOURCES & CREDITS :

   NOAA       Earth
Advisory